EDW3A KLAS-LSZH
Flight info
| Callsign | EDW3A |
|---|---|
| Flight time | N/A |
| Altitude | 37000 |
| Route | GIDGT3 TUKRR DCT DVC DCT FQF J10 LBF DCT FOD DCT DLL DCT TVC DCT YVO/N0487F390 DCT MT DCT BROME DCT DORYY/M084F400 NATS KESIX/N0483F410 DCT APSOV DCT PEPOD DCT MAKUX DCT SOSIM L15 KEPAD L151 TELBA/N0471F350 L151 MID UL612 VEULE DCT TEPRI UN491 POGZI DCT GELTA DCT MANAG DCT PEVIT DCT BLM |
| Aircraft | A359/H-SDE2E3GHIJ3J4J5LM1ORWXY/LB1D1 |
Departure
| Time | N/A |
|---|---|
| Airport | Harry Reid International Airport (KLAS) |
Arrival
| Time | 2026-04-30 07:58 |
|---|---|
| Airport | Zürich Airport (LSZH) |
| Time | Latitude | Longitude | Altitude | Speed | Heading |
|---|---|---|---|---|---|
| 2026-04-30 07:27 | 48.32261 | 4.54731 | 41184 ft | 485 kts | 116° |
| 2026-04-30 07:27 | 48.30690 | 4.59221 | 41185 ft | 486 kts | 116° |
| 2026-04-30 07:28 | 48.27535 | 4.68190 | 41180 ft | 486 kts | 116° |
| 2026-04-30 07:28 | 48.24364 | 4.77146 | 41180 ft | 487 kts | 116° |
| 2026-04-30 07:29 | 48.21175 | 4.86126 | 41178 ft | 488 kts | 116° |
| 2026-04-30 07:29 | 48.17982 | 4.95092 | 41173 ft | 488 kts | 117° |
| 2026-04-30 07:30 | 48.13185 | 5.08539 | 41179 ft | 488 kts | 117° |
| 2026-04-30 07:31 | 48.10240 | 5.17578 | 41188 ft | 486 kts | 106° |
| 2026-04-30 07:31 | 48.08227 | 5.27216 | 41179 ft | 486 kts | 105° |
| 2026-04-30 07:32 | 48.06379 | 5.36935 | 41183 ft | 486 kts | 104° |
| 2026-04-30 07:32 | 48.04550 | 5.46657 | 41187 ft | 486 kts | 104° |
| 2026-04-30 07:33 | 48.02691 | 5.56359 | 41189 ft | 486 kts | 104° |
| 2026-04-30 07:33 | 48.00808 | 5.66056 | 40690 ft | 484 kts | 104° |
| 2026-04-30 07:33 | 47.99865 | 5.70886 | 39972 ft | 486 kts | 104° |
| 2026-04-30 07:34 | 47.98919 | 5.75731 | 39291 ft | 486 kts | 104° |
| 2026-04-30 07:34 | 47.97972 | 5.80569 | 38596 ft | 486 kts | 104° |
| 2026-04-30 07:34 | 47.97020 | 5.85405 | 37809 ft | 484 kts | 104° |
| 2026-04-30 07:34 | 47.96073 | 5.90211 | 37071 ft | 482 kts | 104° |
| 2026-04-30 07:35 | 47.95128 | 5.94990 | 36354 ft | 479 kts | 104° |
| 2026-04-30 07:35 | 47.94188 | 5.99752 | 35559 ft | 479 kts | 104° |
| 2026-04-30 07:35 | 47.93246 | 6.04503 | 34823 ft | 477 kts | 104° |
| 2026-04-30 07:35 | 47.92305 | 6.09238 | 34093 ft | 474 kts | 104° |
| 2026-04-30 07:36 | 47.91368 | 6.13939 | 33247 ft | 472 kts | 104° |
| 2026-04-30 07:36 | 47.90434 | 6.18614 | 32502 ft | 469 kts | 104° |
| 2026-04-30 07:36 | 47.89506 | 6.23243 | 31926 ft | 463 kts | 105° |
| 2026-04-30 07:36 | 47.88589 | 6.27806 | 31393 ft | 456 kts | 105° |
| 2026-04-30 07:37 | 47.87683 | 6.32303 | 30852 ft | 451 kts | 105° |
| 2026-04-30 07:37 | 47.86786 | 6.36747 | 30342 ft | 445 kts | 105° |
| 2026-04-30 07:37 | 47.85900 | 6.41132 | 29749 ft | 439 kts | 105° |
| 2026-04-30 07:37 | 47.85024 | 6.45453 | 29214 ft | 433 kts | 104° |
| 2026-04-30 07:38 | 47.84159 | 6.49705 | 28710 ft | 426 kts | 104° |
| 2026-04-30 07:38 | 47.83307 | 6.53897 | 28214 ft | 420 kts | 104° |
| 2026-04-30 07:38 | 47.82476 | 6.57967 | 27729 ft | 414 kts | 104° |
| 2026-04-30 07:38 | 47.81634 | 6.62086 | 27244 ft | 408 kts | 104° |
| 2026-04-30 07:39 | 47.80823 | 6.66047 | 26768 ft | 403 kts | 104° |
| 2026-04-30 07:39 | 47.80010 | 6.70008 | 26288 ft | 398 kts | 104° |
| 2026-04-30 07:39 | 47.79196 | 6.73976 | 25804 ft | 393 kts | 104° |
| 2026-04-30 07:39 | 47.78399 | 6.77851 | 25344 ft | 389 kts | 104° |
| 2026-04-30 07:40 | 47.77620 | 6.81621 | 24894 ft | 386 kts | 104° |
| 2026-04-30 07:40 | 47.76831 | 6.85434 | 24407 ft | 385 kts | 104° |
| 2026-04-30 07:40 | 47.76046 | 6.89227 | 23934 ft | 383 kts | 104° |
| 2026-04-30 07:40 | 47.75265 | 6.92999 | 23403 ft | 381 kts | 104° |
| 2026-04-30 07:41 | 47.74489 | 6.96741 | 22909 ft | 378 kts | 104° |
| 2026-04-30 07:41 | 47.73715 | 7.00463 | 22428 ft | 376 kts | 104° |
| 2026-04-30 07:41 | 47.72944 | 7.04161 | 21928 ft | 374 kts | 104° |
| 2026-04-30 07:41 | 47.72176 | 7.07840 | 21469 ft | 372 kts | 104° |
| 2026-04-30 07:42 | 47.71411 | 7.11495 | 20979 ft | 370 kts | 104° |
| 2026-04-30 07:42 | 47.70649 | 7.15128 | 20492 ft | 368 kts | 104° |
| 2026-04-30 07:42 | 47.69886 | 7.18746 | 20010 ft | 366 kts | 104° |
| 2026-04-30 07:42 | 47.69128 | 7.22338 | 19567 ft | 365 kts | 104° |
| 2026-04-30 07:43 | 47.68373 | 7.25928 | 19105 ft | 363 kts | 104° |
| 2026-04-30 07:43 | 47.67620 | 7.29500 | 18615 ft | 362 kts | 104° |
| 2026-04-30 07:43 | 47.66870 | 7.33053 | 18075 ft | 360 kts | 104° |
| 2026-04-30 07:43 | 47.66123 | 7.36585 | 17582 ft | 358 kts | 104° |
| 2026-04-30 07:44 | 47.65376 | 7.40102 | 17067 ft | 356 kts | 104° |
| 2026-04-30 07:44 | 47.64634 | 7.43588 | 16593 ft | 354 kts | 104° |
| 2026-04-30 07:44 | 47.63896 | 7.47054 | 16110 ft | 352 kts | 105° |
| 2026-04-30 07:44 | 47.63163 | 7.50499 | 15633 ft | 349 kts | 105° |
| 2026-04-30 07:45 | 47.62401 | 7.53908 | 15156 ft | 347 kts | 107° |
| 2026-04-30 07:45 | 47.61603 | 7.57271 | 14682 ft | 346 kts | 107° |
| 2026-04-30 07:45 | 47.60808 | 7.60624 | 14193 ft | 344 kts | 107° |
| 2026-04-30 07:45 | 47.60019 | 7.63956 | 13663 ft | 340 kts | 105° |
| 2026-04-30 07:46 | 47.59242 | 7.67249 | 13167 ft | 337 kts | 107° |
| 2026-04-30 07:46 | 47.58474 | 7.70511 | 12692 ft | 334 kts | 107° |
| 2026-04-30 07:46 | 47.57707 | 7.73770 | 12352 ft | 341 kts | 106° |
| 2026-04-30 07:46 | 47.56919 | 7.77123 | 11913 ft | 348 kts | 106° |
| 2026-04-30 07:47 | 47.56124 | 7.80499 | 11456 ft | 345 kts | 107° |
| 2026-04-30 07:47 | 47.55332 | 7.83850 | 11059 ft | 344 kts | 108° |
| 2026-04-30 07:47 | 47.54551 | 7.87147 | 10838 ft | 332 kts | 107° |
| 2026-04-30 07:47 | 47.53806 | 7.90287 | 10593 ft | 312 kts | 106° |
| 2026-04-30 07:48 | 47.53109 | 7.93208 | 10162 ft | 294 kts | 106° |
| 2026-04-30 07:48 | 47.52451 | 7.95982 | 9708 ft | 278 kts | 107° |
| 2026-04-30 07:48 | 47.51817 | 7.98659 | 9348 ft | 277 kts | 108° |
| 2026-04-30 07:48 | 47.51216 | 8.01361 | 9030 ft | 274 kts | 103° |
| 2026-04-30 07:49 | 47.51091 | 8.04137 | 8743 ft | 269 kts | 81° |
| 2026-04-30 07:49 | 47.51715 | 8.06634 | 8458 ft | 251 kts | 60° |
| 2026-04-30 07:49 | 47.52648 | 8.08713 | 8179 ft | 235 kts | 56° |
| 2026-04-30 07:49 | 47.53564 | 8.10629 | 7919 ft | 222 kts | 57° |
| 2026-04-30 07:50 | 47.54443 | 8.12480 | 7683 ft | 219 kts | 57° |
| 2026-04-30 07:50 | 47.55312 | 8.14321 | 7430 ft | 218 kts | 57° |
| 2026-04-30 07:50 | 47.56168 | 8.16144 | 7203 ft | 217 kts | 57° |
| 2026-04-30 07:50 | 47.57033 | 8.18003 | 6935 ft | 215 kts | 58° |
| 2026-04-30 07:51 | 47.57872 | 8.19799 | 6661 ft | 215 kts | 58° |
| 2026-04-30 07:51 | 47.58724 | 8.21623 | 6398 ft | 216 kts | 59° |
| 2026-04-30 07:51 | 47.59541 | 8.23506 | 6128 ft | 212 kts | 65° |
| 2026-04-30 07:51 | 47.60166 | 8.25393 | 5802 ft | 204 kts | 67° |
| 2026-04-30 07:52 | 47.60752 | 8.27302 | 5270 ft | 203 kts | 68° |
| 2026-04-30 07:52 | 47.61333 | 8.29202 | 4796 ft | 201 kts | 68° |
| 2026-04-30 07:52 | 47.61895 | 8.31073 | 4371 ft | 196 kts | 70° |
| 2026-04-30 07:52 | 47.62174 | 8.32982 | 4121 ft | 183 kts | 89° |
| 2026-04-30 07:53 | 47.61841 | 8.34731 | 3993 ft | 180 kts | 117° |
| 2026-04-30 07:53 | 47.61040 | 8.36122 | 3953 ft | 173 kts | 131° |
| 2026-04-30 07:53 | 47.60164 | 8.37275 | 3963 ft | 167 kts | 131° |
| 2026-04-30 07:53 | 47.59336 | 8.38390 | 3942 ft | 156 kts | 130° |
| 2026-04-30 07:54 | 47.58541 | 8.39480 | 3973 ft | 156 kts | 130° |
| 2026-04-30 07:54 | 47.57746 | 8.40568 | 3971 ft | 154 kts | 130° |
| 2026-04-30 07:54 | 47.56961 | 8.41637 | 3815 ft | 152 kts | 130° |
| 2026-04-30 07:54 | 47.56187 | 8.42695 | 3606 ft | 152 kts | 129° |
| 2026-04-30 07:55 | 47.55405 | 8.43764 | 3388 ft | 153 kts | 130° |
| 2026-04-30 07:55 | 47.54619 | 8.44841 | 3158 ft | 155 kts | 130° |
| 2026-04-30 07:55 | 47.53828 | 8.45921 | 2977 ft | 155 kts | 131° |
| 2026-04-30 07:55 | 47.53032 | 8.47004 | 2743 ft | 155 kts | 129° |
| 2026-04-30 07:56 | 47.52263 | 8.48057 | 2550 ft | 145 kts | 129° |
| 2026-04-30 07:56 | 47.51550 | 8.49035 | 2368 ft | 136 kts | 131° |
| 2026-04-30 07:56 | 47.50859 | 8.49976 | 2198 ft | 136 kts | 130° |
| 2026-04-30 07:56 | 47.50155 | 8.50932 | 2005 ft | 137 kts | 132° |
| 2026-04-30 07:57 | 47.49462 | 8.51902 | 1804 ft | 138 kts | 133° |
| 2026-04-30 07:57 | 47.48757 | 8.52856 | 1613 ft | 138 kts | 129° |
| 2026-04-30 07:57 | 47.48056 | 8.53809 | 1424 ft | 135 kts | 131° |
| 2026-04-30 07:57 | 47.47414 | 8.54691 | 1411 ft | 110 kts | 137° |
| 2026-04-30 07:58 | 47.46940 | 8.55336 | 1412 ft | 69 kts | 136° |
| 2026-04-30 07:58 | 47.46701 | 8.55665 | 1410 ft | 36 kts | 137° |
| 2026-04-30 07:58 | 47.46532 | 8.55877 | 1407 ft | 25 kts | 148° |
| 2026-04-30 07:58 | 47.46386 | 8.55960 | 1407 ft | 16 kts | 169° |
| 2026-04-30 07:59 | 47.46271 | 8.55992 | 1412 ft | 14 kts | 169° |
| 2026-04-30 07:59 | 47.46210 | 8.56006 | 1407 ft | 10 kts | 177° |
| 2026-04-30 07:59 | 47.46140 | 8.55996 | 1406 ft | 11 kts | 186° |
| 2026-04-30 08:00 | 47.45970 | 8.55971 | 1411 ft | 14 kts | 191° |
| 2026-04-30 08:00 | 47.45940 | 8.55853 | 1409 ft | 15 kts | 274° |
| 2026-04-30 08:00 | 47.45951 | 8.55689 | 1411 ft | 10 kts | 276° |
| 2026-04-30 08:00 | 47.45970 | 8.55638 | 1403 ft | 6 kts | 329° |
| 2026-04-30 08:01 | 47.45982 | 8.55596 | 1411 ft | 4 kts | 269° |
| 2026-04-30 08:01 | 47.45994 | 8.55539 | 1410 ft | 7 kts | 313° |
| 2026-04-30 08:01 | 47.46028 | 8.55527 | 1411 ft | 5 kts | 4° |
| 2026-04-30 08:01 | 47.46036 | 8.55528 | 1403 ft | 2 kts | 4° |
| 2026-04-30 08:02 | 47.46041 | 8.55529 | 1403 ft | 0 kts | 4° |